Terminal Aerodrome Forecast
Issued by NWS

Home | Current Version | Previous Version | Graphics & Text | Print | Product List | Glossary On
Versions: 1 2 3 4 5 6 7 8 9 10 11 12 13 14 15 16 17 18 19 20 21 22 23 24 25
616
FTUS41 KCLE 090542
TAFFDY
TAF
KFDY 090542Z 0906/1006 28010KT P6SM OVC015
      TEMPO 0912/0915 6SM -SHSN OVC009
     FM091800 28015G22KT P6SM BKN025=

USA.gov is the U.S. government's official web portal to all federal, state and local government web resources and services.